Time;durP1;ratioP1;P1;durP2;ratioP2;P2;SDS_P1;SDS_P2;PMS_P1;PMS_P2;Temp;Humidity;BMP_temperature;BMP_pressure;BME280_temperature;BME280_humidity;BME280_pressure;Samples;Min_cycle;Max_cycle;Signal;HPM_P1;HPM_P2
2024/03/04 00:00:37;;;;;;;54.87;36.43;;;;;;;6.98;100.00;102186.72;5050313;28;20526;-70
2024/03/04 00:03:03;;;;;;;57.47;36.37;;;;;;;6.99;100.00;102184.88;5049909;28;20445;-70
2024/03/04 00:05:29;;;;;;;56.30;36.07;;;;;;;7.06;100.00;102182.47;5051326;28;20198;-69
2024/03/04 00:07:56;;;;;;;57.10;37.03;;;;;;;6.94;100.00;102189.81;5045755;28;20194;-69
2024/03/04 00:10:21;;;;;;;57.27;37.17;;;;;;;6.62;100.00;102124.28;5047595;28;20234;-69
2024/03/04 00:12:47;;;;;;;53.27;36.40;;;;;;;6.84;100.00;102151.66;5046615;28;20614;-71
2024/03/04 00:15:15;;;;;;;55.07;36.50;;;;;;;6.35;100.00;102087.69;5050370;28;20195;-70
2024/03/04 00:17:41;;;;;;;57.37;36.17;;;;;;;6.70;100.00;102144.91;5047892;28;20666;-69
2024/03/04 00:20:10;;;;;;;62.30;38.30;;;;;;;6.86;100.00;102147.03;5048493;28;20472;-70
2024/03/04 00:22:36;;;;;;;59.90;37.93;;;;;;;6.83;100.00;102155.28;5048990;28;20203;-72
2024/03/04 00:25:05;;;;;;;61.30;40.53;;;;;;;6.78;100.00;102148.56;5048563;28;20454;-69
2024/03/04 00:27:31;;;;;;;60.53;39.70;;;;;;;6.71;100.00;102152.78;5042585;28;20218;-69
2024/03/04 00:29:56;;;;;;;60.57;38.93;;;;;;;6.68;100.00;102146.88;5047603;28;20438;-69
2024/03/04 00:32:24;;;;;;;60.83;37.77;;;;;;;6.91;100.00;102171.41;5051480;28;20183;-69
2024/03/04 00:34:49;;;;;;;59.07;38.70;;;;;;;6.46;100.00;102089.38;5049663;28;20183;-70
2024/03/04 00:37:15;;;;;;;58.40;38.77;;;;;;;6.24;100.00;102063.84;5050204;28;20921;-70
2024/03/04 00:39:43;;;;;;;63.97;39.67;;;;;;;6.94;100.00;102171.13;5046509;28;20194;-70
2024/03/04 00:42:08;;;;;;;57.53;39.80;;;;;;;6.07;100.00;102036.91;5047391;28;20437;-70
2024/03/04 00:44:34;;;;;;;64.43;40.23;;;;;;;6.72;100.00;102153.63;5052597;28;20965;-71
2024/03/04 00:46:59;;;;;;;57.57;38.23;;;;;;;6.90;100.00;102178.59;5047234;28;20182;-70
2024/03/04 00:49:26;;;;;;;61.03;37.60;;;;;;;6.76;100.00;102173.69;5049013;28;20232;-69
2024/03/04 00:51:51;;;;;;;55.63;38.00;;;;;;;6.23;100.00;102086.16;5050184;28;20199;-69
2024/03/04 00:54:18;;;;;;;58.33;38.17;;;;;;;6.68;100.00;102169.06;5048633;28;20484;-70
2024/03/04 00:56:43;;;;;;;59.13;39.13;;;;;;;6.81;100.00;102167.94;5040395;28;20261;-71
2024/03/04 00:59:09;;;;;;;64.10;41.67;;;;;;;6.68;100.00;102169.06;5049217;28;20450;-69
2024/03/04 01:01:34;;;;;;;58.60;39.90;;;;;;;6.34;100.00;102118.00;5047036;28;20210;-71
2024/03/04 01:04:00;;;;;;;60.00;40.50;;;;;;;6.79;100.00;102178.72;5052313;28;20657;-69
2024/03/04 01:06:27;;;;;;;64.97;39.70;;;;;;;5.94;100.00;102084.28;5052429;28;20210;-71
2024/03/04 01:08:53;;;;;;;58.43;38.50;;;;;;;6.03;100.00;102071.97;5044346;28;20445;-71
2024/03/04 01:11:18;;;;;;;57.57;39.50;;;;;;;6.46;100.00;102132.84;5048813;28;20595;-72
2024/03/04 01:13:44;;;;;;;57.10;36.50;;;;;;;6.76;100.00;102187.00;5049484;28;20218;-70
2024/03/04 01:16:09;;;;;;;61.40;40.97;;;;;;;6.57;100.00;102123.88;5053474;28;20192;-70
2024/03/04 01:18:36;;;;;;;60.80;40.57;;;;;;;6.74;100.00;102160.50;5051595;28;20183;-72
2024/03/04 01:21:03;;;;;;;64.40;40.83;;;;;;;6.43;100.00;102118.97;5054865;28;20203;-70
2024/03/04 01:23:28;;;;;;;60.60;41.30;;;;;;;5.79;100.00;102035.91;5054369;28;20444;-69
2024/03/04 01:25:54;;;;;;;62.30;40.67;;;;;;;6.09;100.00;102076.75;5052085;28;20440;-69
2024/03/04 01:28:22;;;;;;;63.63;41.73;;;;;;;6.79;100.00;102190.22;5049352;28;20187;-69
2024/03/04 01:30:49;;;;;;;60.90;39.10;;;;;;;6.37;100.00;102101.72;5048948;28;20514;-72
2024/03/04 01:33:15;;;;;;;57.73;37.33;;;;;;;6.49;100.00;102111.25;5051594;28;20473;-70
2024/03/04 01:35:40;;;;;;;61.60;39.77;;;;;;;6.89;100.00;102141.41;5049977;28;20535;-71
2024/03/04 01:38:06;;;;;;;55.70;37.20;;;;;;;6.85;100.00;102143.47;5056059;28;20723;-71
2024/03/04 01:40:31;;;;;;;52.73;36.13;;;;;;;6.75;100.00;102145.34;5050444;28;20701;-70
2024/03/04 01:42:57;;;;;;;53.30;35.67;;;;;;;6.79;100.00;102170.72;5050899;28;20682;-71
2024/03/04 01:45:25;;;;;;;50.67;34.40;;;;;;;6.89;100.00;102184.91;5058399;28;20225;-70
2024/03/04 01:48:02;;;;;;;48.63;33.83;;;;;;;6.73;100.00;102182.78;5053703;28;20187;-71
2024/03/04 01:50:31;;;;;;;43.10;29.63;;;;;;;6.61;100.00;102178.59;5051125;28;20816;-69
2024/03/04 01:52:59;;;;;;;41.10;28.30;;;;;;;6.66;100.00;102204.84;5054447;28;21019;-69
2024/03/04 01:55:28;;;;;;;46.43;29.17;;;;;;;6.57;100.00;102202.03;5053533;28;20434;-70
2024/03/04 01:57:56;;;;;;;43.40;31.50;;;;;;;5.52;100.00;102027.72;5052064;28;20437;-69
2024/03/04 02:00:23;;;;;;;39.40;28.03;;;;;;;6.38;100.00;102187.84;5047953;28;20468;-69
2024/03/04 02:02:51;;;;;;;39.63;29.13;;;;;;;6.43;100.00;102183.78;5054100;28;20428;-69
2024/03/04 02:05:17;;;;;;;39.47;28.97;;;;;;;6.25;100.00;102190.75;5051137;28;20445;-69
2024/03/04 02:07:43;;;;;;;39.43;28.80;;;;;;;6.12;100.00;102199.00;5056306;28;20433;-70
2024/03/04 02:10:12;;;;;;;42.77;29.47;;;;;;;6.34;100.00;102260.06;5051260;28;20245;-72
2024/03/04 02:12:37;;;;;;;42.33;27.57;;;;;;;6.06;100.00;102266.16;5052234;28;21153;-69
2024/03/04 02:15:03;;;;;;;40.03;28.03;;;;;;;6.16;100.00;102338.94;5052951;28;20514;-69
2024/03/04 02:17:30;;;;;;;42.13;30.97;;;;;;;5.94;100.00;102342.63;5051595;28;20612;-69
2024/03/04 02:20:19;;;;;;;43.57;30.63;;;;;;;6.20;100.00;102391.00;5053279;28;20445;-70
2024/03/04 02:22:44;;;;;;;43.67;30.93;;;;;;;6.13;100.00;102375.66;5052544;28;20434;-70
2024/03/04 02:25:13;;;;;;;43.47;31.43;;;;;;;6.20;100.00;102404.31;5053475;28;20446;-70
2024/03/04 02:27:39;;;;;;;53.03;34.27;;;;;;;5.93;100.00;102451.91;5047652;28;20183;-71
2024/03/04 02:30:07;;;;;;;45.00;32.40;;;;;;;5.95;100.00;102400.25;5048324;28;20458;-69
2024/03/04 02:32:32;;;;;;;47.20;33.20;;;;;;;6.19;100.00;102444.41;5050324;28;20191;-71
2024/03/04 02:35:02;;;;;;;53.47;32.53;;;;;;;5.77;100.00;102346.69;5049352;28;20487;-69
2024/03/04 02:37:28;;;;;;;44.70;31.60;;;;;;;5.85;100.00;102439.25;5051461;28;20191;-70
2024/03/04 02:39:56;;;;;;;42.23;30.80;;;;;;;5.43;100.00;102381.47;5047076;28;20948;-71
2024/03/04 02:42:22;;;;;;;49.83;29.23;;;;;;;5.80;100.00;102446.78;5048741;28;20250;-71
2024/03/04 02:44:47;;;;;;;49.10;30.97;;;;;;;5.76;100.00;102485.28;5055526;28;20449;-70
2024/03/04 02:47:14;;;;;;;41.77;29.13;;;;;;;5.71;100.00;102467.03;5050709;28;20605;-71
2024/03/04 02:49:40;;;;;;;38.27;28.70;;;;;;;5.64;100.00;102480.00;5046167;28;20235;-70
2024/03/04 02:52:05;;;;;;;40.73;29.13;;;;;;;5.71;100.00;102495.47;5050315;28;20531;-70
2024/03/04 02:54:31;;;;;;;41.70;29.27;;;;;;;4.94;100.00;102376.66;5051024;28;20216;-69
2024/03/04 02:56:56;;;;;;;36.80;27.50;;;;;;;4.76;100.00;102363.88;5052471;28;21219;-69
2024/03/04 02:59:22;;;;;;;39.23;27.73;;;;;;;5.65;100.00;102495.00;5051085;28;20191;-70
2024/03/04 03:01:48;;;;;;;40.53;25.93;;;;;;;5.53;100.00;102490.69;5048673;28;20225;-69
2024/03/04 03:04:16;;;;;;;33.43;25.10;;;;;;;5.37;100.00;102460.97;5051044;28;20261;-70
2024/03/04 03:06:44;;;;;;;43.43;27.37;;;;;;;5.43;100.00;102473.75;5046829;28;20490;-69
2024/03/04 03:09:11;;;;;;;44.47;26.70;;;;;;;4.58;100.00;102353.91;5040947;28;20516;-69
2024/03/04 03:11:37;;;;;;;35.33;26.70;;;;;;;4.97;100.00;102377.25;5050010;28;20499;-69
2024/03/04 03:14:05;;;;;;;38.23;25.47;;;;;;;5.40;100.00;102468.69;5049912;28;21379;-71
2024/03/04 03:16:30;;;;;;;47.93;27.57;;;;;;;5.32;100.00;102423.22;5050332;28;20203;-69
2024/03/04 03:18:56;;;;;;;36.63;25.50;;;;;;;4.97;100.00;102384.41;5047765;28;20446;-70
2024/03/04 03:21:26;;;;;;;43.43;26.40;;;;;;;5.18;100.00;102435.88;5049692;28;20218;-71
2024/03/04 03:23:51;;;;;;;38.03;27.57;;;;;;;4.89;100.00;102382.38;5046194;28;20266;-70
2024/03/04 03:26:17;;;;;;;36.83;26.07;;;;;;;5.26;100.00;102421.91;5053500;28;20513;-69
2024/03/04 03:28:43;;;;;;;41.60;27.30;;;;;;;5.42;100.00;102414.38;5048179;28;21480;-70
2024/03/04 03:31:09;;;;;;;33.40;26.20;;;;;;;5.21;100.00;102373.59;5051482;28;20219;-71
2024/03/04 03:33:34;;;;;;;37.10;27.13;;;;;;;4.84;100.00;102307.44;5051875;28;20469;-70
2024/03/04 03:36:04;;;;;;;42.53;28.97;;;;;;;5.51;100.00;102436.72;5056796;28;20465;-69
2024/03/04 03:38:30;;;;;;;42.30;28.43;;;;;;;5.48;100.00;102436.16;5052421;28;20190;-69
2024/03/04 03:40:56;;;;;;;44.53;29.57;;;;;;;5.36;100.00;102398.09;5055986;28;20980;-70
2024/03/04 03:43:22;;;;;;;38.73;27.67;;;;;;;5.48;100.00;102390.91;5049956;28;20944;-71
2024/03/04 03:45:48;;;;;;;46.97;30.07;;;;;;;5.70;100.00;102374.84;5047898;28;20268;-69
2024/03/04 03:48:17;;;;;;;43.70;29.57;;;;;;;5.77;100.00;102375.16;5050737;28;20198;-70
2024/03/04 03:50:46;;;;;;;45.93;31.57;;;;;;;5.65;100.00;102350.41;5046221;28;20956;-69
2024/03/04 03:53:12;;;;;;;43.33;31.13;;;;;;;5.66;100.00;102297.00;5050333;28;20468;-70
2024/03/04 03:55:38;;;;;;;41.57;31.83;;;;;;;5.52;100.00;102268.06;5051186;28;20427;-71
2024/03/04 03:58:04;;;;;;;45.50;33.97;;;;;;;5.84;100.00;102317.72;5050644;28;20293;-69
2024/03/04 04:00:30;;;;;;;43.53;32.10;;;;;;;5.21;100.00;102212.16;5052169;28;20464;-69
2024/03/04 04:02:59;;;;;;;44.17;32.40;;;;;;;5.97;100.00;102310.41;5053494;28;20429;-70
2024/03/04 04:05:24;;;;;;;40.97;31.53;;;;;;;6.12;100.00;102310.91;5051811;28;20426;-69
2024/03/04 04:07:50;;;;;;;42.73;31.30;;;;;;;6.08;100.00;102315.66;5054273;28;20511;-70
2024/03/04 04:10:15;;;;;;;40.40;30.50;;;;;;;5.92;100.00;102246.00;5050877;28;20625;-70
2024/03/04 04:12:40;;;;;;;42.03;32.63;;;;;;;6.23;100.00;102329.44;5054317;28;21789;-69
2024/03/04 04:15:06;;;;;;;39.17;30.87;;;;;;;6.25;100.00;102297.31;5053420;28;20188;-69
2024/03/04 04:17:32;;;;;;;40.07;30.60;;;;;;;6.24;100.00;102312.47;5049522;28;20225;-69
2024/03/04 04:19:57;;;;;;;38.67;29.67;;;;;;;5.61;100.00;102206.09;5051085;28;20195;-70
2024/03/04 04:22:23;;;;;;;41.53;30.93;;;;;;;5.96;100.00;102290.09;5050832;28;20198;-69
2024/03/04 04:24:49;;;;;;;37.53;29.80;;;;;;;6.28;100.00;102337.91;5053351;28;20187;-69
2024/03/04 04:27:17;;;;;;;41.40;30.60;;;;;;;6.27;100.00;102338.84;5054176;28;20208;-69
2024/03/04 04:29:43;;;;;;;40.33;31.20;;;;;;;6.02;100.00;102302.03;5051140;28;20452;-70
2024/03/04 04:32:08;;;;;;;39.70;30.83;;;;;;;6.16;100.00;102338.09;5048941;28;20241;-70
2024/03/04 04:34:34;;;;;;;39.10;30.47;;;;;;;5.78;100.00;102265.84;5045722;28;20216;-68
2024/03/04 04:36:59;;;;;;;39.30;30.13;;;;;;;5.81;100.00;102248.75;5049777;28;20198;-68
2024/03/04 04:39:25;;;;;;;37.93;30.03;;;;;;;5.94;100.00;102317.81;5047876;28;20191;-68
2024/03/04 04:41:50;;;;;;;34.90;28.73;;;;;;;5.81;100.00;102256.75;5054299;28;20306;-69
2024/03/04 04:44:16;;;;;;;39.30;30.97;;;;;;;6.23;100.00;102353.44;5050119;28;20237;-68
2024/03/04 04:46:41;;;;;;;41.03;31.27;;;;;;;6.15;100.00;102345.25;5054648;28;20524;-68
2024/03/04 04:49:07;;;;;;;40.17;31.37;;;;;;;6.04;100.00;102348.00;5048076;28;20194;-69
2024/03/04 04:51:35;;;;;;;39.40;31.10;;;;;;;5.38;100.00;102269.25;5052215;28;20202;-70
2024/03/04 04:54:01;;;;;;;37.77;29.50;;;;;;;5.96;100.00;102422.38;5049674;28;20481;-68
2024/03/04 04:56:28;;;;;;;42.13;31.00;;;;;;;5.63;100.00;102352.34;5054328;28;20444;-68
2024/03/04 04:58:54;;;;;;;44.20;30.47;;;;;;;6.11;100.00;102474.38;5045981;28;20195;-70
2024/03/04 05:01:26;;;;;;;42.20;32.17;;;;;;;6.19;100.00;102476.38;5054018;28;20567;-69
2024/03/04 05:03:52;;;;;;;39.73;30.70;;;;;;;5.85;100.00;102444.59;5049994;28;20188;-69
2024/03/04 05:06:19;;;;;;;39.10;30.70;;;;;;;5.78;100.00;102436.25;5049975;28;20814;-69
2024/03/04 05:08:45;;;;;;;42.00;32.87;;;;;;;6.16;100.00;102481.97;5046556;28;20730;-69
2024/03/04 05:11:10;;;;;;;39.60;30.80;;;;;;;6.09;100.00;102482.50;5048370;28;20466;-68
2024/03/04 05:13:36;;;;;;;38.50;30.40;;;;;;;5.59;100.00;102405.00;5053089;28;20723;-68
2024/03/04 05:16:01;;;;;;;37.70;28.57;;;;;;;6.18;100.00;102512.84;5048923;28;20191;-68
2024/03/04 05:18:27;;;;;;;35.63;28.93;;;;;;;5.84;100.00;102454.41;5055120;28;20237;-68
2024/03/04 05:20:52;;;;;;;39.67;29.77;;;;;;;6.11;100.00;102512.53;5049006;28;20697;-68
2024/03/04 05:23:18;;;;;;;36.53;28.30;;;;;;;6.13;100.00;102501.72;5051138;28;20277;-69
2024/03/04 05:25:43;;;;;;;38.97;29.17;;;;;;;5.77;100.00;102461.19;5052731;28;20194;-69
2024/03/04 05:28:11;;;;;;;38.67;29.87;;;;;;;6.12;100.00;102529.34;5051821;28;20199;-70
2024/03/04 05:30:37;;;;;;;40.23;31.53;;;;;;;6.24;100.00;102532.81;5045669;28;20872;-68
2024/03/04 05:33:03;;;;;;;37.87;29.63;;;;;;;5.79;100.00;102459.25;5051777;28;20553;-69
2024/03/04 05:35:29;;;;;;;37.77;29.87;;;;;;;6.18;100.00;102517.34;5045415;28;20487;-70
2024/03/04 05:37:54;;;;;;;38.00;29.23;;;;;;;6.15;100.00;102515.78;5048768;28;20466;-69
2024/03/04 05:40:23;;;;;;;40.57;31.20;;;;;;;5.94;100.00;102472.28;5048699;28;20262;-69
2024/03/04 05:42:48;;;;;;;39.00;29.83;;;;;;;6.11;100.00;102511.69;5049494;28;20214;-69
2024/03/04 05:45:16;;;;;;;37.97;29.70;;;;;;;6.08;100.00;102512.78;5051225;28;20477;-68
2024/03/04 05:47:44;;;;;;;41.40;32.37;;;;;;;5.95;100.00;102495.28;5051847;28;20191;-69
2024/03/04 05:50:14;;;;;;;34.57;27.53;;;;;;;6.08;100.00;102478.16;5051160;28;20461;-69
2024/03/04 05:52:39;;;;;;;38.23;29.03;;;;;;;6.08;100.00;102490.63;5046693;28;20430;-68
2024/03/04 05:55:06;;;;;;;38.80;30.37;;;;;;;6.06;100.00;102492.56;5053692;28;20855;-68
2024/03/04 05:57:33;;;;;;;38.67;29.67;;;;;;;6.14;100.00;102508.75;5051964;28;20190;-70
2024/03/04 06:00:04;;;;;;;41.07;30.03;;;;;;;6.08;100.00;102514.59;5049452;28;20437;-68
2024/03/04 06:02:30;;;;;;;38.80;30.33;;;;;;;6.09;100.00;102529.59;5052484;28;20532;-70
2024/03/04 06:04:55;;;;;;;37.20;28.37;;;;;;;4.89;100.00;102288.44;5055844;28;20422;-68
2024/03/04 06:07:21;;;;;;;39.80;29.57;;;;;;;6.18;100.00;102518.19;5052438;28;20451;-68
2024/03/04 06:09:49;;;;;;;38.73;28.70;;;;;;;6.02;100.00;102481.34;5053554;28;20306;-68
2024/03/04 06:12:14;;;;;;;41.30;31.00;;;;;;;6.16;100.00;102514.78;5055146;28;20623;-69
2024/03/04 06:14:41;;;;;;;40.43;31.00;;;;;;;6.30;100.00;102490.47;5052359;28;20474;-68
2024/03/04 06:17:06;;;;;;;38.03;28.67;;;;;;;5.88;100.00;102439.84;5057478;28;20676;-68
2024/03/04 06:19:33;;;;;;;38.80;31.50;;;;;;;6.34;100.00;102518.59;5058120;28;20434;-68
2024/03/04 06:21:59;;;;;;;39.23;29.87;;;;;;;6.27;100.00;102517.41;5054174;28;20198;-69
2024/03/04 06:24:24;;;;;;;40.53;30.20;;;;;;;6.32;100.00;102525.00;5054470;28;20809;-68
2024/03/04 06:26:50;;;;;;;38.83;30.53;;;;;;;5.82;100.00;102437.69;5056220;28;20442;-68
2024/03/04 06:29:15;;;;;;;38.73;30.30;;;;;;;6.15;100.00;102520.25;5050748;28;24141;-69
2024/03/04 06:31:40;;;;;;;39.77;31.00;;;;;;;5.98;100.00;102468.38;5049068;28;20257;-68
2024/03/04 06:34:06;;;;;;;38.87;29.60;;;;;;;5.71;100.00;102472.34;5050647;28;20939;-68
2024/03/04 06:36:40;;;;;;;40.27;30.90;;;;;;;6.31;100.00;102542.00;5050074;28;20183;-69
2024/03/04 06:39:05;;;;;;;40.03;30.27;;;;;;;6.08;100.00;102470.16;5056824;28;20188;-69
2024/03/04 06:41:31;;;;;;;39.07;30.50;;;;;;;6.37;100.00;102505.97;5052705;28;20469;-68
2024/03/04 06:43:56;;;;;;;38.23;30.47;;;;;;;6.27;100.00;102498.75;5053349;28;20257;-69
2024/03/04 06:46:22;;;;;;;40.90;30.03;;;;;;;6.31;100.00;102520.66;5053581;28;20610;-70
2024/03/04 06:48:47;;;;;;;41.40;30.87;;;;;;;6.38;100.00;102551.16;5051054;28;20183;-68
2024/03/04 06:51:13;;;;;;;37.20;29.40;;;;;;;6.07;100.00;102497.75;5045925;28;20215;-69
2024/03/04 06:53:39;;;;;;;39.20;30.50;;;;;;;6.00;100.00;102517.91;5048877;28;20222;-69
2024/03/04 06:56:09;;;;;;;39.20;30.57;;;;;;;6.31;100.00;102560.66;5050374;28;20460;-69
2024/03/04 06:58:37;;;;;;;40.60;29.20;;;;;;;5.89;100.00;102521.41;5043588;28;20444;-69
2024/03/04 07:01:03;;;;;;;40.50;30.30;;;;;;;6.28;100.00;102550.25;5039792;28;20461;-68
2024/03/04 07:03:29;;;;;;;38.07;30.70;;;;;;;6.43;100.00;102559.59;5042051;28;21177;-69
2024/03/04 07:05:54;;;;;;;38.30;29.33;;;;;;;6.38;100.00;102560.97;5049535;28;21026;-69
2024/03/04 07:08:20;;;;;;;39.80;29.87;;;;;;;5.78;100.00;102446.91;5047031;28;20217;-69
2024/03/04 07:10:45;;;;;;;37.67;30.10;;;;;;;5.72;100.00;102442.09;5048445;28;20211;-70
2024/03/04 07:13:10;;;;;;;38.87;28.70;;;;;;;6.15;100.00;102515.78;5045002;28;20218;-69
2024/03/04 07:15:36;;;;;;;39.03;28.70;;;;;;;6.22;100.00;102530.28;5044918;28;20338;-68
2024/03/04 07:18:01;;;;;;;39.33;29.53;;;;;;;6.00;100.00;102485.09;5045077;28;20198;-68
2024/03/04 07:20:27;;;;;;;43.17;31.47;;;;;;;5.84;100.00;102472.16;5046052;28;20214;-70
2024/03/04 07:22:52;;;;;;;39.10;29.90;;;;;;;6.14;100.00;102562.06;5046779;28;20183;-68
2024/03/04 07:25:18;;;;;;;40.40;30.67;;;;;;;6.57;100.00;102603.78;5049524;28;20665;-69
2024/03/04 07:27:43;;;;;;;40.13;32.80;;;;;;;6.68;100.00;102603.72;5042689;28;20187;-69
2024/03/04 07:30:09;;;;;;;40.27;31.37;;;;;;;6.62;100.00;102612.19;5047016;28;20229;-69
2024/03/04 07:32:37;;;;;;;40.60;31.03;;;;;;;6.65;100.00;102622.59;5046753;28;20192;-70
2024/03/04 07:35:02;;;;;;;40.53;30.67;;;;;;;6.57;100.00;102615.28;5044370;28;20682;-68
2024/03/04 07:37:31;;;;;;;39.03;29.83;;;;;;;6.77;100.00;102642.09;5050784;28;20443;-68
2024/03/04 07:39:56;;;;;;;38.57;30.23;;;;;;;6.62;100.00;102606.03;5046617;28;20503;-68
2024/03/04 07:42:23;;;;;;;39.70;30.27;;;;;;;6.57;100.00;102611.78;5049481;28;20944;-68
2024/03/04 07:44:49;;;;;;;40.87;30.90;;;;;;;6.36;100.00;102541.59;5046183;28;20310;-69
2024/03/04 07:47:14;;;;;;;37.13;28.53;;;;;;;6.55;100.00;102584.38;5047660;28;20449;-70
2024/03/04 07:49:40;;;;;;;37.30;30.00;;;;;;;6.55;100.00;102640.38;5046424;28;20289;-70
2024/03/04 07:52:05;;;;;;;38.47;29.50;;;;;;;6.28;100.00;102579.56;5041830;28;20179;-68
2024/03/04 07:54:31;;;;;;;35.97;29.40;;;;;;;6.66;100.00;102644.81;5042630;28;20215;-68
2024/03/04 07:56:56;;;;;;;37.37;30.13;;;;;;;6.59;100.00;102633.78;5045690;28;20195;-68
2024/03/04 07:59:21;;;;;;;37.20;29.20;;;;;;;6.05;100.00;102531.69;5047032;28;20195;-68
2024/03/04 08:01:50;;;;;;;38.03;30.03;;;;;;;6.58;100.00;102613.44;5046612;28;20217;-69
2024/03/04 08:04:16;;;;;;;36.00;29.17;;;;;;;6.74;100.00;102615.66;5042564;28;20199;-68
2024/03/04 08:06:42;;;;;;;35.73;29.13;;;;;;;6.82;100.00;102639.00;5041807;28;20442;-69
2024/03/04 08:09:08;;;;;;;36.87;28.97;;;;;;;6.78;100.00;102649.09;5037484;28;20546;-69
2024/03/04 08:11:34;;;;;;;36.97;29.47;;;;;;;6.95;100.00;102619.16;5043336;28;20580;-68
2024/03/04 08:14:00;;;;;;;37.77;30.00;;;;;;;6.69;100.00;102583.22;5046994;28;20207;-69
2024/03/04 08:16:25;;;;;;;38.70;31.60;;;;;;;6.70;100.00;102598.22;5044715;28;20856;-70
2024/03/04 08:18:51;;;;;;;37.03;29.50;;;;;;;7.09;100.00;102641.13;5042679;28;20449;-69
2024/03/04 08:21:16;;;;;;;38.77;30.97;;;;;;;6.92;100.00;102631.94;5045484;28;20209;-68
2024/03/04 08:23:42;;;;;;;41.63;30.10;;;;;;;6.72;100.00;102617.63;5044894;28;20195;-68
2024/03/04 08:26:07;;;;;;;39.30;31.20;;;;;;;6.57;100.00;102577.09;5049723;28;20191;-69
2024/03/04 08:28:33;;;;;;;39.30;30.80;;;;;;;7.24;100.00;102655.84;5049291;28;20533;-69
2024/03/04 08:30:59;;;;;;;39.43;30.63;;;;;;;7.32;100.00;102668.50;5045441;28;20233;-68
2024/03/04 08:33:24;;;;;;;41.13;30.93;;;;;;;6.61;100.00;102570.53;5050882;28;20203;-68
2024/03/04 08:35:49;;;;;;;43.70;32.93;;;;;;;7.06;100.00;102646.75;5041370;28;20195;-68
2024/03/04 08:38:15;;;;;;;41.83;30.67;;;;;;;7.39;100.00;102669.69;5047254;28;20668;-68
2024/03/04 08:40:40;;;;;;;42.27;32.37;;;;;;;7.38;100.00;102673.34;5048213;28;20613;-68
2024/03/04 08:43:06;;;;;;;43.27;32.80;;;;;;;7.23;100.00;102651.47;5043343;28;20191;-68
2024/03/04 08:45:31;;;;;;;46.90;33.17;;;;;;;6.93;100.00;102637.13;5044564;28;20249;-68
2024/03/04 08:47:57;;;;;;;45.10;33.67;;;;;;;7.39;100.00;102691.88;5047023;28;20582;-69
2024/03/04 08:50:22;;;;;;;50.47;36.10;;;;;;;7.44;100.00;102692.34;5046485;28;20236;-69
2024/03/04 08:52:48;;;;;;;42.37;32.20;;;;;;;7.42;100.00;102690.78;5048245;28;20248;-68
2024/03/04 08:55:13;;;;;;;42.60;33.93;;;;;;;7.08;100.00;102620.78;5046132;28;20694;-69
2024/03/04 08:57:39;;;;;;;42.13;32.27;;;;;;;7.67;100.00;102702.84;5041148;28;20613;-69
2024/03/04 09:00:07;;;;;;;41.30;31.93;;;;;;;7.79;100.00;102690.25;5044004;28;20215;-69
2024/03/04 09:02:33;;;;;;;41.37;33.67;;;;;;;7.65;100.00;102688.78;5044441;28;20823;-68
2024/03/04 09:04:58;;;;;;;44.40;33.53;;;;;;;7.54;100.00;102743.13;5046729;28;20467;-68
2024/03/04 09:07:26;;;;;;;38.90;31.20;;;;;;;7.36;100.00;102723.34;5050671;28;20855;-69
2024/03/04 09:09:53;;;;;;;41.07;31.50;;;;;;;7.57;100.00;102771.38;5049611;28;20209;-68
2024/03/04 09:12:20;;;;;;;42.27;32.90;;;;;;;7.36;100.00;102779.41;5051469;28;20468;-68
2024/03/04 09:14:45;;;;;;;43.60;33.17;;;;;;;6.97;100.00;102693.72;5051420;28;20839;-69
2024/03/04 09:17:11;;;;;;;41.47;32.40;;;;;;;7.48;100.00;102717.78;5045787;28;20448;-68
2024/03/04 09:19:41;;;;;;;44.20;32.63;;;;;;;7.65;100.00;102767.06;5033184;28;20253;-68
2024/03/04 09:22:07;;;;;;;40.90;32.30;;;;;;;7.53;100.00;102735.25;5041490;28;20192;-68
2024/03/04 09:24:33;;;;;;;46.33;34.27;;;;;;;7.54;100.00;102756.47;5039840;28;20453;-68
2024/03/04 09:26:58;;;;;;;44.07;33.90;;;;;;;7.58;100.00;102757.91;5049256;28;21048;-68
2024/03/04 09:29:23;;;;;;;42.43;32.67;;;;;;;7.20;100.00;102686.44;5045563;28;20614;-68
2024/03/04 09:31:49;;;;;;;44.97;33.17;;;;;;;7.45;100.00;102755.44;5041962;28;20249;-68
2024/03/04 09:34:14;;;;;;;46.60;33.70;;;;;;;7.37;100.00;102773.09;5045443;28;20219;-68
2024/03/04 09:36:40;;;;;;;46.67;33.47;;;;;;;7.39;100.00;102782.66;5049733;28;20179;-69
2024/03/04 09:39:05;;;;;;;42.70;31.20;;;;;;;7.24;100.00;102739.44;5048091;28;20191;-69
2024/03/04 09:41:35;;;;;;;42.47;32.40;;;;;;;7.29;100.00;102717.69;5047210;28;20214;-68
2024/03/04 09:44:01;;;;;;;46.13;32.97;;;;;;;7.67;100.00;102762.47;5047917;28;20207;-69
2024/03/04 09:46:27;;;;;;;43.27;32.10;;;;;;;7.29;100.00;102692.81;5046685;28;20537;-69
2024/03/04 09:48:54;;;;;;;44.43;33.30;;;;;;;7.38;100.00;102737.44;5049106;28;20194;-69
2024/03/04 09:51:23;;;;;;;43.57;32.67;;;;;;;7.42;100.00;102637.38;5047893;28;20477;-70
2024/03/04 09:53:50;;;;;;;42.87;32.60;;;;;;;7.91;100.00;102748.78;5047108;28;20504;-68
2024/03/04 09:56:16;;;;;;;44.80;34.27;;;;;;;7.84;100.00;102728.94;5048358;28;20437;-68
2024/03/04 09:58:42;;;;;;;42.33;33.33;;;;;;;8.20;100.00;102701.75;5047176;28;20828;-69
2024/03/04 10:01:08;;;;;;;44.57;33.00;;;;;;;7.92;100.00;102677.47;5049628;28;20521;-69
2024/03/04 10:03:35;;;;;;;44.30;33.53;;;;;;;8.07;100.00;102718.03;5048085;28;20175;-68
2024/03/04 10:06:02;;;;;;;44.43;32.87;;;;;;;7.88;100.00;102703.63;5054264;28;20495;-68
2024/03/04 10:08:27;;;;;;;43.70;32.20;;;;;;;8.05;100.00;102678.09;5048841;28;20707;-70
2024/03/04 10:10:53;;;;;;;53.40;36.37;;;;;;;8.35;100.00;102722.59;5049939;28;21027;-68
2024/03/04 10:13:19;;;;;;;59.20;40.23;;;;;;;8.13;100.00;102685.44;5051549;28;20226;-69
2024/03/04 10:15:48;;;;;;;58.73;40.10;;;;;;;8.32;100.00;102696.13;5048410;28;20214;-68
2024/03/04 10:18:16;;;;;;;58.50;40.57;;;;;;;8.26;100.00;102682.47;5057093;28;20653;-67
2024/03/04 10:20:42;;;;;;;55.70;37.73;;;;;;;8.65;100.00;102707.47;5041445;28;20883;-70
2024/03/04 10:23:07;;;;;;;56.30;39.97;;;;;;;8.75;100.00;102710.97;5050710;28;20444;-68
2024/03/04 10:25:33;;;;;;;60.97;40.63;;;;;;;8.79;100.00;102703.50;5049446;28;20187;-68
2024/03/04 10:27:59;;;;;;;56.20;40.43;;;;;;;8.97;100.00;102695.63;5050540;28;20772;-68
2024/03/04 10:30:26;;;;;;;60.20;41.57;;;;;;;8.26;100.00;102608.47;5054377;28;20486;-69
2024/03/04 10:32:56;;;;;;;60.20;42.47;;;;;;;8.81;100.00;102688.16;5055208;28;20224;-69
2024/03/04 10:35:22;;;;;;;54.37;38.57;;;;;;;8.78;100.00;102667.88;5045808;28;20469;-68
2024/03/04 10:37:50;;;;;;;54.47;38.40;;;;;;;8.94;100.00;102680.69;5040425;28;20446;-70
2024/03/04 10:40:20;;;;;;;57.60;39.93;;;;;;;8.36;100.00;102608.47;5051173;28;20471;-68
2024/03/04 10:42:46;;;;;;;65.07;42.40;;;;;;;8.92;100.00;102661.25;5049476;28;20504;-69
2024/03/04 10:45:13;;;;;;;57.60;40.90;;;;;;;8.85;100.00;102660.13;5055055;28;20476;-68
2024/03/04 10:47:41;;;;;;;55.37;38.77;;;;;;;9.02;100.00;102666.59;5046935;28;20436;-68
2024/03/04 10:50:08;;;;;;;59.60;38.50;;;;;;;8.78;100.00;102626.91;5051799;28;20461;-69
2024/03/04 10:52:33;;;;;;;62.43;41.53;;;;;;;9.27;100.00;102649.91;5041754;28;20565;-68
2024/03/04 10:54:59;;;;;;;58.60;40.23;;;;;;;9.09;100.00;102632.06;5047221;28;20557;-68
2024/03/04 10:57:28;;;;;;;54.57;37.33;;;;;;;9.35;100.00;102629.59;5050324;28;20650;-68
2024/03/04 11:00:25;;;;;;;56.93;40.33;;;;;;;9.52;100.00;102620.78;5045313;28;20445;-69
2024/03/04 11:03:00;;;;;;;56.90;38.47;;;;;;;9.50;100.00;102604.84;5050981;28;20508;-68
2024/03/04 11:05:33;;;;;;;55.63;38.70;;;;;;;9.46;100.00;102570.47;5060027;28;20472;-68